createdAt,value
2023-02-12T00:00:28.612Z,99.90
2023-02-12T00:01:30.692Z,99.90
2023-02-12T00:02:32.505Z,99.90
2023-02-12T00:03:34.274Z,99.90
2023-02-12T00:04:36.316Z,99.90
2023-02-12T00:05:39.005Z,99.90
2023-02-12T00:06:40.736Z,99.90
2023-02-12T00:07:42.899Z,99.90
2023-02-12T00:08:44.696Z,99.90
2023-02-12T00:09:46.434Z,99.90
2023-02-12T00:10:48.168Z,99.90
2023-02-12T00:11:49.917Z,99.90
2023-02-12T00:12:54.164Z,99.90
2023-02-12T00:13:57.025Z,99.90
2023-02-12T00:14:58.774Z,99.90
2023-02-12T00:16:03.842Z,99.90
2023-02-12T00:17:05.586Z,99.90
2023-02-12T00:18:07.730Z,99.90
2023-02-12T00:19:09.694Z,99.90
2023-02-12T00:20:11.793Z,99.90
2023-02-12T00:21:14.373Z,99.90
2023-02-12T00:22:16.116Z,99.90
2023-02-12T00:23:17.853Z,99.90
2023-02-12T00:24:19.660Z,99.90
2023-02-12T00:25:21.651Z,99.90
2023-02-12T00:26:24.351Z,99.90
2023-02-12T00:27:26.452Z,99.90
2023-02-12T00:28:28.194Z,99.90
2023-02-12T00:29:29.985Z,99.90
2023-02-12T00:30:31.723Z,99.90
2023-02-12T00:31:33.592Z,99.90
2023-02-12T00:32:37.388Z,99.90
2023-02-12T00:33:39.875Z,99.90
2023-02-12T00:34:41.776Z,99.90
2023-02-12T00:35:44.166Z,99.90
2023-02-12T00:36:46.310Z,99.90
2023-02-12T00:37:48.057Z,99.90
2023-02-12T00:38:52.361Z,99.90
2023-02-12T00:39:54.144Z,99.90
2023-02-12T00:40:56.169Z,99.90
2023-02-12T00:41:57.953Z,99.90
2023-02-12T00:43:00.055Z,99.90
2023-02-12T00:44:01.995Z,99.90
2023-02-12T00:45:04.085Z,99.90
2023-02-12T00:46:06.977Z,99.90
2023-02-12T00:47:08.915Z,99.90
2023-02-12T00:48:10.823Z,99.90
2023-02-12T00:49:13.278Z,99.90
2023-02-12T00:50:15.461Z,99.90
2023-02-12T00:51:17.234Z,99.90
2023-02-12T00:52:19.413Z,99.90
2023-02-12T00:53:21.244Z,99.90
2023-02-12T00:54:23.165Z,99.90
2023-02-12T00:55:24.875Z,99.90
2023-02-12T00:56:26.601Z,99.90
2023-02-12T00:57:28.320Z,99.90
2023-02-12T00:58:30.214Z,99.90
2023-02-12T00:59:32.166Z,99.90
2023-02-12T01:00:34.536Z,99.90
2023-02-12T01:01:36.501Z,99.90
2023-02-12T01:02:38.721Z,99.90
2023-02-12T01:03:40.757Z,99.90
2023-02-12T01:04:42.723Z,99.90
2023-02-12T01:05:44.809Z,99.90
2023-02-12T01:06:46.595Z,99.90
2023-02-12T01:07:52.440Z,99.90
2023-02-12T01:08:54.250Z,99.90
2023-02-12T01:09:56.018Z,99.90
2023-02-12T01:11:00.148Z,99.90
2023-02-12T01:12:02.530Z,99.90
2023-02-12T01:13:04.266Z,99.90
2023-02-12T01:14:06.174Z,99.90
2023-02-12T01:15:10.569Z,99.90
2023-02-12T01:16:19.657Z,99.90
2023-02-12T01:17:21.417Z,99.90
2023-02-12T01:18:23.249Z,99.90
2023-02-12T01:19:25.077Z,99.90
2023-02-12T01:20:27.774Z,99.90
2023-02-12T01:21:31.563Z,99.90
2023-02-12T01:22:38.206Z,99.90
2023-02-12T01:23:41.410Z,99.90
2023-02-12T01:24:43.194Z,99.90
2023-02-12T01:25:45.086Z,99.90
2023-02-12T01:26:46.809Z,99.90
2023-02-12T01:27:48.813Z,99.90
2023-02-12T01:29:03.206Z,99.90
2023-02-12T01:30:08.187Z,99.90
2023-02-12T01:31:15.305Z,99.90
2023-02-12T01:32:17.341Z,99.90
2023-02-12T01:33:19.369Z,99.90
2023-02-12T01:34:21.523Z,99.90
2023-02-12T01:35:25.684Z,99.90
2023-02-12T01:36:29.207Z,99.90
2023-02-12T01:37:31.191Z,99.90
2023-02-12T01:38:33.082Z,99.90
2023-02-12T01:39:35.804Z,99.90
2023-02-12T01:40:37.666Z,99.90
2023-02-12T01:41:42.943Z,99.90
2023-02-12T01:42:44.685Z,99.90
2023-02-12T01:44:05.261Z,99.90
2023-02-12T01:45:13.445Z,99.90
2023-02-12T01:46:15.464Z,99.90
2023-02-12T01:47:18.611Z,99.90
2023-02-12T01:48:23.713Z,99.90
2023-02-12T01:49:37.999Z,99.90
2023-02-12T01:50:40.189Z,99.90
2023-02-12T01:51:43.959Z,99.90
2023-02-12T01:52:49.982Z,99.90
2023-02-12T01:53:54.608Z,99.90
2023-02-12T01:55:00.747Z,99.90
2023-02-12T01:56:03.454Z,99.90
2023-02-12T01:57:06.968Z,99.90
2023-02-12T01:58:10.299Z,99.90
2023-02-12T01:59:12.950Z,99.90
2023-02-12T02:00:18.401Z,99.90
2023-02-12T02:01:23.172Z,99.90
2023-02-12T02:02:25.375Z,99.90
2023-02-12T02:03:27.322Z,99.90
2023-02-12T02:04:33.220Z,99.90
2023-02-12T02:05:55.854Z,99.90
2023-02-12T02:07:03.416Z,99.90
2023-02-12T02:08:05.795Z,99.90
2023-02-12T02:09:07.810Z,99.90
2023-02-12T02:10:09.836Z,99.90
2023-02-12T02:11:30.301Z,99.90
2023-02-12T02:12:50.930Z,99.90
2023-02-12T02:14:12.222Z,99.90
2023-02-12T02:15:14.017Z,99.90
2023-02-12T02:16:25.328Z,99.90
2023-02-12T02:17:32.920Z,99.90
2023-02-12T02:19:12.414Z,99.90
2023-02-12T02:20:47.894Z,99.90
2023-02-12T02:21:58.296Z,99.90
2023-02-12T02:23:17.508Z,99.90
2023-02-12T02:25:04.613Z,99.90
2023-02-12T02:26:40.150Z,99.90
2023-02-12T02:27:55.981Z,99.90
2023-02-12T02:29:22.225Z,99.90
2023-02-12T02:30:35.929Z,99.90
2023-02-12T02:32:57.388Z,99.90
2023-02-12T02:34:21.713Z,99.90
2023-02-12T02:35:28.969Z,99.90
2023-02-12T02:36:54.175Z,99.90
2023-02-12T02:38:23.405Z,99.90
2023-02-12T02:39:28.256Z,99.90
2023-02-12T02:40:46.960Z,99.90
2023-02-12T02:41:55.671Z,99.90
2023-02-12T02:43:07.565Z,99.90
2023-02-12T02:44:16.105Z,99.90
2023-02-12T02:45:41.804Z,99.90
2023-02-12T02:46:50.041Z,99.90
2023-02-12T02:48:06.673Z,99.90
2023-02-12T02:49:16.773Z,99.90
2023-02-12T02:50:23.219Z,99.90
2023-02-12T02:51:30.739Z,99.90
2023-02-12T02:52:37.952Z,99.90
2023-02-12T02:54:06.063Z,99.90
2023-02-12T02:55:11.099Z,99.90
2023-02-12T02:56:17.634Z,99.90
2023-02-12T02:57:26.217Z,99.90
2023-02-12T02:58:36.524Z,99.90
2023-02-12T02:59:45.547Z,99.90
2023-02-12T03:00:47.380Z,99.90
2023-02-12T03:01:53.773Z,99.90
2023-02-12T03:03:02.606Z,99.90
2023-02-12T03:04:12.119Z,99.90
2023-02-12T03:05:22.592Z,99.90
2023-02-12T03:06:40.250Z,99.90
2023-02-12T03:07:51.306Z,99.90
2023-02-12T03:09:06.151Z,99.90
2023-02-12T03:10:16.413Z,99.90
2023-02-12T03:11:26.699Z,99.90
2023-02-12T03:12:38.482Z,99.90
2023-02-12T03:14:03.115Z,99.90
2023-02-12T03:15:21.161Z,99.90
2023-02-12T03:16:33.941Z,99.90
2023-02-12T03:17:40.902Z,99.90
2023-02-12T03:18:57.166Z,99.90
2023-02-12T03:20:05.140Z,99.90
2023-02-12T03:21:16.978Z,99.90
2023-02-12T03:22:24.535Z,99.90
2023-02-12T03:23:30.929Z,99.90
2023-02-12T03:24:38.410Z,99.90
2023-02-12T03:25:49.517Z,99.90
2023-02-12T03:27:24.296Z,99.90
2023-02-12T03:28:30.315Z,99.90
2023-02-12T03:29:32.972Z,99.90
2023-02-12T03:30:58.480Z,99.90
2023-02-12T03:32:00.214Z,99.90
2023-02-12T03:33:30.307Z,99.90
2023-02-12T03:35:00.452Z,99.90
2023-02-12T03:36:13.539Z,99.90
2023-02-12T03:37:33.442Z,99.90
2023-02-12T03:38:43.379Z,99.90
2023-02-12T03:40:07.556Z,99.90
2023-02-12T03:41:11.869Z,99.90
2023-02-12T03:42:43.053Z,99.90
2023-02-12T03:44:05.796Z,99.90
2023-02-12T03:45:14.307Z,99.90
2023-02-12T03:46:27.834Z,99.90
2023-02-12T03:47:44.465Z,99.90
2023-02-12T03:49:09.766Z,99.90
2023-02-12T03:50:26.108Z,99.90
2023-02-12T03:51:37.050Z,99.90
2023-02-12T03:52:38.955Z,99.90
2023-02-12T03:53:42.656Z,99.90
2023-02-12T03:54:44.695Z,99.90
2023-02-12T03:55:52.178Z,99.90
2023-02-12T03:57:20.273Z,99.90
2023-02-12T03:58:25.758Z,99.90
2023-02-12T03:59:28.347Z,99.90
2023-02-12T04:00:30.670Z,99.90
2023-02-12T04:01:34.091Z,99.90
2023-02-12T04:02:36.733Z,99.90
2023-02-12T04:03:38.890Z,99.90
2023-02-12T04:04:40.951Z,99.90
2023-02-12T04:05:42.853Z,99.90
2023-02-12T04:06:48.004Z,99.90
2023-02-12T04:07:53.761Z,99.90
2023-02-12T04:08:58.798Z,99.90
2023-02-12T04:10:00.849Z,99.90
2023-02-12T04:11:25.044Z,99.90
2023-02-12T04:12:53.064Z,99.90
2023-02-12T04:14:49.816Z,99.90
2023-02-12T04:15:51.762Z,99.90
2023-02-12T04:17:02.215Z,99.90
2023-02-12T04:18:23.789Z,99.90
2023-02-12T04:19:38.502Z,99.90
2023-02-12T04:21:11.771Z,99.90
2023-02-12T04:22:25.660Z,99.90
2023-02-12T04:23:39.415Z,99.90
2023-02-12T04:25:08.498Z,99.90
2023-02-12T04:26:29.412Z,99.90
2023-02-12T04:27:41.258Z,99.90
2023-02-12T04:29:32.026Z,99.90
2023-02-12T04:30:45.091Z,99.90
2023-02-12T04:31:57.354Z,99.90
2023-02-12T04:33:08.294Z,99.90
2023-02-12T04:34:12.674Z,99.90
2023-02-12T04:35:36.676Z,99.90
2023-02-12T04:37:12.556Z,99.90
2023-02-12T04:38:39.066Z,99.90
2023-02-12T04:39:42.508Z,99.90
2023-02-12T04:40:44.679Z,99.90
2023-02-12T04:41:46.450Z,99.90
2023-02-12T04:42:52.494Z,99.90
2023-02-12T04:43:54.237Z,99.90
2023-02-12T04:44:56.136Z,99.90
2023-02-12T04:45:58.422Z,99.90
2023-02-12T04:47:01.117Z,99.90
2023-02-12T04:48:03.611Z,99.90
2023-02-12T04:49:05.527Z,99.90
2023-02-12T04:50:08.521Z,99.90
2023-02-12T04:51:10.685Z,99.90
2023-02-12T04:52:12.408Z,99.90
2023-02-12T04:53:14.464Z,99.90
2023-02-12T04:54:18.532Z,99.90
2023-02-12T04:55:20.339Z,99.90
2023-02-12T04:56:22.055Z,99.90
2023-02-12T04:57:23.788Z,99.90
2023-02-12T04:58:25.592Z,99.90
2023-02-12T04:59:27.691Z,99.90
2023-02-12T05:00:29.823Z,99.90
2023-02-12T05:01:34.735Z,99.90
2023-02-12T05:02:36.615Z,99.90
2023-02-12T05:03:38.710Z,99.90
2023-02-12T05:04:40.513Z,99.90
2023-02-12T05:05:42.310Z,99.90
2023-02-12T05:06:45.114Z,99.90
2023-02-12T05:07:46.854Z,99.90
2023-02-12T05:08:49.159Z,99.90
2023-02-12T05:09:50.880Z,99.90
2023-02-12T05:10:52.672Z,99.90
2023-02-12T05:11:54.365Z,99.90
2023-02-12T05:12:56.201Z,99.90
2023-02-12T05:13:58.554Z,99.90
2023-02-12T05:15:00.397Z,99.90
2023-02-12T05:16:08.389Z,99.90
2023-02-12T05:17:10.199Z,99.90
2023-02-12T05:18:11.860Z,99.90
2023-02-12T05:19:13.692Z,99.90
2023-02-12T05:20:15.496Z,99.90
2023-02-12T05:21:17.677Z,99.90
2023-02-12T05:22:19.544Z,99.90
2023-02-12T05:23:21.383Z,99.90
2023-02-12T05:24:23.104Z,99.90
2023-02-12T05:25:24.720Z,99.90
2023-02-12T05:26:26.441Z,99.90
2023-02-12T05:27:28.083Z,99.90
2023-02-12T05:28:30.182Z,99.90
2023-02-12T05:29:31.870Z,99.90
2023-02-12T05:30:33.649Z,99.90
2023-02-12T05:31:35.415Z,99.90
2023-02-12T05:32:38.463Z,99.90
2023-02-12T05:33:42.541Z,99.90
2023-02-12T05:34:44.247Z,99.90
2023-02-12T05:35:45.912Z,99.90
2023-02-12T05:36:47.556Z,99.90
2023-02-12T05:37:49.186Z,99.90
2023-02-12T05:38:52.867Z,99.90
2023-02-12T05:39:54.708Z,99.90
2023-02-12T05:41:02.707Z,99.90
2023-02-12T05:42:04.450Z,99.90
2023-02-12T05:43:06.092Z,99.90
2023-02-12T05:44:08.131Z,99.90
2023-02-12T05:45:09.919Z,99.90
2023-02-12T05:46:12.334Z,99.90
2023-02-12T05:47:14.249Z,99.90
2023-02-12T05:48:16.030Z,99.90
2023-02-12T05:49:17.677Z,99.90
2023-02-12T05:50:19.432Z,99.90
2023-02-12T05:51:23.004Z,99.90
2023-02-12T05:52:24.957Z,99.90
2023-02-12T05:53:26.591Z,99.90
2023-02-12T05:54:28.227Z,99.90
2023-02-12T05:55:29.893Z,99.90
2023-02-12T05:56:32.906Z,99.90
2023-02-12T05:57:34.552Z,99.90
2023-02-12T05:58:36.633Z,99.90
2023-02-12T05:59:38.625Z,99.90
2023-02-12T06:00:40.509Z,99.90
2023-02-12T06:01:42.905Z,99.90
2023-02-12T06:02:44.552Z,99.90
2023-02-12T06:03:46.411Z,99.90
2023-02-12T06:04:48.750Z,99.90
2023-02-12T06:05:50.982Z,99.90
2023-02-12T06:06:53.721Z,99.90
2023-02-12T06:07:55.555Z,99.90
2023-02-12T06:08:57.668Z,99.90
2023-02-12T06:09:59.405Z,99.90
2023-02-12T06:11:02.729Z,99.90
2023-02-12T06:12:04.582Z,99.90
2023-02-12T06:13:06.250Z,99.90
2023-02-12T06:14:09.178Z,99.90
2023-02-12T06:15:10.856Z,99.90
2023-02-12T06:16:25.552Z,99.90
2023-02-12T06:17:27.234Z,99.90
2023-02-12T06:18:28.968Z,99.90
2023-02-12T06:19:30.675Z,99.90
2023-02-12T06:20:32.373Z,99.90
2023-02-12T06:21:34.194Z,99.90
2023-02-12T06:22:36.199Z,99.90
2023-02-12T06:23:38.000Z,99.90
2023-02-12T06:24:39.637Z,99.90
2023-02-12T06:25:41.239Z,99.90
2023-02-12T06:26:43.038Z,99.90
2023-02-12T06:27:44.727Z,99.90
2023-02-12T06:28:46.424Z,99.90
2023-02-12T06:29:48.206Z,99.90
2023-02-12T06:30:50.327Z,99.90
2023-02-12T06:31:52.265Z,99.90
2023-02-12T06:32:54.030Z,99.90
2023-02-12T06:33:58.176Z,99.90
2023-02-12T06:34:59.997Z,99.90
2023-02-12T06:36:03.003Z,99.90
2023-02-12T06:37:04.705Z,99.90
2023-02-12T06:38:06.364Z,99.90
2023-02-12T06:39:08.612Z,99.90
2023-02-12T06:40:10.528Z,99.90
2023-02-12T06:41:12.674Z,99.90
2023-02-12T06:42:14.482Z,99.90
2023-02-12T06:43:16.127Z,99.90
2023-02-12T06:44:17.932Z,99.90
2023-02-12T06:45:19.578Z,99.90
2023-02-12T06:46:21.607Z,99.90
2023-02-12T06:47:23.285Z,99.90
2023-02-12T06:48:24.896Z,99.90
2023-02-12T06:49:26.530Z,99.90
2023-02-12T06:50:29.993Z,99.90
2023-02-12T06:51:32.154Z,99.90
2023-02-12T06:52:33.778Z,99.90
2023-02-12T06:53:35.826Z,99.90
2023-02-12T06:54:38.690Z,99.90
2023-02-12T06:55:40.465Z,99.90
2023-02-12T06:56:42.138Z,99.90
2023-02-12T06:57:43.864Z,99.90
2023-02-12T06:58:46.650Z,99.90
2023-02-12T06:59:49.152Z,99.90
2023-02-12T07:00:50.851Z,99.90
2023-02-12T07:01:52.537Z,99.90
2023-02-12T07:02:55.326Z,99.90
2023-02-12T07:04:02.136Z,99.90
2023-02-12T07:05:04.373Z,99.90
2023-02-12T07:06:06.231Z,99.90
2023-02-12T07:07:07.874Z,99.90
2023-02-12T07:08:09.630Z,99.90
2023-02-12T07:09:11.329Z,99.90
2023-02-12T07:10:12.983Z,99.90
2023-02-12T07:11:14.975Z,99.90
2023-02-12T07:12:16.653Z,99.90
2023-02-12T07:13:18.666Z,99.90
2023-02-12T07:14:20.337Z,99.90
2023-02-12T07:15:21.970Z,99.90
2023-02-12T07:16:23.758Z,99.90
2023-02-12T07:17:25.780Z,99.90
2023-02-12T07:18:27.470Z,99.90
2023-02-12T07:19:29.619Z,99.90
2023-02-12T07:20:31.256Z,99.90
2023-02-12T07:21:33.043Z,99.90
2023-02-12T07:22:37.605Z,99.90
2023-02-12T07:23:39.605Z,99.90
2023-02-12T07:24:41.309Z,99.90
2023-02-12T07:25:42.992Z,99.90
2023-02-12T07:26:44.660Z,99.90
2023-02-12T07:27:46.290Z,99.90
2023-02-12T07:28:48.792Z,99.90
2023-02-12T07:29:50.652Z,99.90
2023-02-12T07:30:52.929Z,99.90
2023-02-12T07:31:54.819Z,99.90
2023-02-12T07:32:56.625Z,99.90
2023-02-12T07:33:59.084Z,99.90
2023-02-12T07:35:00.875Z,99.90
2023-02-12T07:36:03.126Z,99.90
2023-02-12T07:37:04.821Z,99.90
2023-02-12T07:38:06.641Z,99.90
2023-02-12T07:39:08.350Z,99.90
2023-02-12T07:40:10.271Z,99.90
2023-02-12T07:41:16.895Z,99.90
2023-02-12T07:42:18.598Z,99.90
2023-02-12T07:43:20.393Z,99.90
2023-02-12T07:44:22.076Z,99.90
2023-02-12T07:45:23.788Z,99.90
2023-02-12T07:46:30.035Z,99.90
2023-02-12T07:47:31.921Z,99.90
2023-02-12T07:48:33.551Z,99.90
2023-02-12T07:49:35.365Z,99.90
2023-02-12T07:50:37.184Z,99.90
2023-02-12T07:51:39.079Z,99.90
2023-02-12T07:52:40.707Z,99.90
2023-02-12T07:53:42.498Z,99.90
2023-02-12T07:54:44.150Z,99.90
2023-02-12T07:55:45.860Z,99.90
2023-02-12T07:56:47.688Z,99.90
2023-02-12T07:57:49.377Z,99.90
2023-02-12T07:58:52.928Z,99.90
2023-02-12T07:59:54.610Z,99.90
2023-02-12T08:00:56.316Z,99.90
2023-02-12T08:01:59.385Z,99.90
2023-02-12T08:03:01.064Z,99.90
2023-02-12T08:04:07.345Z,99.90
2023-02-12T08:05:09.185Z,99.90
2023-02-12T08:06:11.926Z,99.90
2023-02-12T08:07:13.576Z,99.90
2023-02-12T08:08:15.233Z,99.90
2023-02-12T08:09:19.558Z,99.90
2023-02-12T08:10:22.330Z,99.90
2023-02-12T08:11:24.679Z,99.90
2023-02-12T08:12:26.372Z,99.90
2023-02-12T08:13:27.974Z,99.90
2023-02-12T08:14:30.086Z,99.90
2023-02-12T08:15:31.752Z,99.90
2023-02-12T08:16:36.543Z,99.90
2023-02-12T08:17:38.339Z,99.90
2023-02-12T08:18:40.299Z,99.90
2023-02-12T08:19:42.062Z,99.90
2023-02-12T08:20:43.676Z,99.90
2023-02-12T08:21:47.215Z,99.90
2023-02-12T08:22:48.849Z,99.90
2023-02-12T08:23:50.930Z,99.90
2023-02-12T08:24:52.633Z,99.90
2023-02-12T08:25:54.542Z,99.90
2023-02-12T08:26:56.369Z,99.90
2023-02-12T08:27:58.085Z,99.90
2023-02-12T08:29:02.785Z,99.90
2023-02-12T08:30:04.626Z,99.90
2023-02-12T08:31:07.972Z,99.90
2023-02-12T08:32:14.121Z,99.90
2023-02-12T08:33:15.847Z,99.90
2023-02-12T08:34:19.001Z,99.90
2023-02-12T08:35:20.767Z,99.90
2023-02-12T08:36:24.338Z,99.90
2023-02-12T08:37:25.990Z,99.90
2023-02-12T08:38:27.641Z,99.90
2023-02-12T08:39:29.978Z,99.90
2023-02-12T08:40:31.741Z,99.90
2023-02-12T08:41:33.987Z,99.90
2023-02-12T08:42:35.655Z,99.90
2023-02-12T08:43:38.145Z,99.90
2023-02-12T08:44:40.875Z,99.90
2023-02-12T08:45:43.076Z,99.90
2023-02-12T08:46:50.188Z,99.90
2023-02-12T08:47:51.980Z,99.90
2023-02-12T08:48:54.851Z,99.90
2023-02-12T08:49:56.529Z,99.90
2023-02-12T08:51:09.375Z,99.90
2023-02-12T08:52:11.142Z,99.90
2023-02-12T08:53:12.966Z,99.90
2023-02-12T08:54:17.528Z,99.90
2023-02-12T08:55:19.391Z,99.90
2023-02-12T08:56:21.447Z,99.90
2023-02-12T08:57:23.156Z,99.90
2023-02-12T08:58:25.028Z,99.90
2023-02-12T08:59:26.870Z,99.90
2023-02-12T09:00:28.538Z,99.90
2023-02-12T09:01:31.317Z,99.90
2023-02-12T09:02:33.246Z,99.90
2023-02-12T09:03:35.142Z,99.90
2023-02-12T09:04:37.013Z,99.90
2023-02-12T09:05:39.520Z,99.90
2023-02-12T09:06:41.400Z,99.90
2023-02-12T09:07:43.021Z,99.90
2023-02-12T09:08:45.026Z,99.90
2023-02-12T09:09:46.790Z,99.90
2023-02-12T09:10:48.437Z,99.90
2023-02-12T09:11:50.515Z,99.90
2023-02-12T09:12:52.150Z,99.90
2023-02-12T09:13:53.792Z,99.90
2023-02-12T09:14:55.582Z,99.90
2023-02-12T09:15:57.570Z,99.90
2023-02-12T09:16:59.678Z,99.90
2023-02-12T09:18:04.093Z,99.90
2023-02-12T09:19:06.263Z,99.90
2023-02-12T09:20:08.010Z,99.90
2023-02-12T09:21:11.070Z,99.90
2023-02-12T09:22:12.734Z,99.90
2023-02-12T09:23:14.854Z,99.90
2023-02-12T09:24:25.085Z,99.90
2023-02-12T09:25:26.870Z,99.90
2023-02-12T09:26:28.567Z,99.90
2023-02-12T09:27:31.720Z,99.90
2023-02-12T09:28:33.749Z,99.90
2023-02-12T09:29:35.485Z,99.90
2023-02-12T09:30:38.061Z,99.90
2023-02-12T09:31:39.817Z,99.90
2023-02-12T09:32:41.961Z,99.90
2023-02-12T09:33:43.705Z,99.90
2023-02-12T09:34:45.948Z,99.90
2023-02-12T09:35:47.610Z,99.90
2023-02-12T09:36:49.727Z,99.90
2023-02-12T09:37:52.805Z,99.90
2023-02-12T09:38:55.242Z,99.90
2023-02-12T09:39:57.086Z,99.90
2023-02-12T09:41:08.083Z,99.90
2023-02-12T09:42:15.710Z,99.90
2023-02-12T09:43:26.637Z,99.90
2023-02-12T09:44:29.491Z,99.90
2023-02-12T09:45:36.320Z,99.90
2023-02-12T09:46:56.709Z,99.90
2023-02-12T09:48:17.214Z,99.90
2023-02-12T09:49:30.078Z,99.90
2023-02-12T09:50:43.128Z,99.90
2023-02-12T09:51:51.014Z,99.90
2023-02-12T09:52:54.801Z,99.90
2023-02-12T09:54:02.776Z,99.90
2023-02-12T09:55:04.858Z,99.90
2023-02-12T09:56:12.758Z,99.90
2023-02-12T09:57:36.334Z,99.90
2023-02-12T09:58:49.861Z,99.90
2023-02-12T09:59:54.306Z,99.90
2023-02-12T10:00:56.231Z,99.90
2023-02-12T10:01:58.855Z,99.90
2023-02-12T10:03:03.998Z,99.90
2023-02-12T10:04:07.084Z,99.90
2023-02-12T10:05:29.049Z,99.90
2023-02-12T10:06:36.532Z,99.90
2023-02-12T10:07:44.204Z,99.90
2023-02-12T10:08:54.874Z,99.90
2023-02-12T10:10:08.463Z,99.90
2023-02-12T10:11:10.120Z,99.90
2023-02-12T10:12:14.585Z,99.90
2023-02-12T10:13:27.457Z,99.90
2023-02-12T10:14:29.442Z,99.90
2023-02-12T10:15:49.800Z,99.90
2023-02-12T10:17:08.369Z,99.90
2023-02-12T10:18:18.978Z,99.90
2023-02-12T10:19:35.446Z,99.90
2023-02-12T10:20:47.967Z,99.90
2023-02-12T10:22:05.916Z,99.90
2023-02-12T10:23:22.713Z,99.90
2023-02-12T10:24:35.087Z,99.90
2023-02-12T10:25:36.773Z,99.90
2023-02-12T10:26:41.347Z,99.90
2023-02-12T10:27:46.191Z,99.90
2023-02-12T10:28:49.386Z,99.90
2023-02-12T10:29:51.576Z,99.90
2023-02-12T10:30:55.707Z,99.90
2023-02-12T10:32:00.640Z,99.90
2023-02-12T10:33:14.921Z,99.90
2023-02-12T10:34:18.841Z,99.90
2023-02-12T10:35:21.552Z,99.90
2023-02-12T10:36:35.240Z,99.90
2023-02-12T10:37:45.311Z,99.90
2023-02-12T10:38:49.168Z,99.90
2023-02-12T10:39:55.053Z,99.90
2023-02-12T10:40:58.403Z,99.90
2023-02-12T10:42:08.095Z,99.90
2023-02-12T10:43:12.048Z,99.90
2023-02-12T10:44:13.659Z,99.90
2023-02-12T10:45:16.839Z,99.90
2023-02-12T10:46:18.761Z,99.90
2023-02-12T10:47:21.633Z,99.90
2023-02-12T10:48:43.597Z,99.90
2023-02-12T10:49:45.445Z,99.90
2023-02-12T10:50:50.097Z,99.90
2023-02-12T10:52:10.629Z,99.90
2023-02-12T10:53:16.915Z,99.90
2023-02-12T10:54:32.729Z,99.90
2023-02-12T10:55:35.541Z,99.90
2023-02-12T10:56:37.327Z,99.90
2023-02-12T10:57:39.337Z,99.90
2023-02-12T10:58:42.420Z,99.90
2023-02-12T10:59:44.997Z,99.90
2023-02-12T11:00:55.097Z,99.90
2023-02-12T11:02:05.327Z,99.90
2023-02-12T11:03:14.352Z,99.90
2023-02-12T11:04:21.320Z,99.90
2023-02-12T11:05:24.950Z,99.90
2023-02-12T11:06:31.239Z,99.90
2023-02-12T11:07:47.531Z,99.90
2023-02-12T11:08:58.540Z,99.90
2023-02-12T11:10:02.866Z,99.90
2023-02-12T11:11:07.947Z,99.90
2023-02-12T11:12:25.685Z,99.90
2023-02-12T11:13:29.296Z,99.90
2023-02-12T11:14:40.535Z,99.90
2023-02-12T11:16:06.316Z,99.90
2023-02-12T11:17:22.272Z,99.90
2023-02-12T11:18:35.798Z,99.90
2023-02-12T11:19:39.931Z,99.90
2023-02-12T11:20:48.948Z,99.90
2023-02-12T11:21:51.560Z,99.90
2023-02-12T11:22:58.631Z,99.90
2023-02-12T11:24:19.379Z,99.90
2023-02-12T11:25:23.828Z,99.90
2023-02-12T11:26:28.795Z,99.90
2023-02-12T11:27:30.980Z,99.90
2023-02-12T11:28:37.217Z,99.90
2023-02-12T11:29:42.911Z,99.90
2023-02-12T11:30:52.224Z,99.90
2023-02-12T11:32:01.542Z,99.90
2023-02-12T11:33:25.832Z,99.90
2023-02-12T11:34:32.733Z,99.90
2023-02-12T11:35:36.068Z,99.90
2023-02-12T11:36:46.137Z,99.90
2023-02-12T11:37:48.487Z,99.90
2023-02-12T11:38:52.768Z,99.80
2023-02-12T11:39:56.459Z,99.90
2023-02-12T11:41:03.967Z,99.30
2023-02-12T11:42:14.869Z,99.00
2023-02-12T11:43:17.687Z,98.40
2023-02-12T11:44:23.307Z,98.10
2023-02-12T11:45:33.910Z,98.30
2023-02-12T11:46:38.195Z,98.60
2023-02-12T11:47:40.885Z,98.30
2023-02-12T11:48:53.447Z,97.90
2023-02-12T11:50:06.843Z,97.90
2023-02-12T11:51:16.205Z,98.20
2023-02-12T11:52:30.420Z,98.10
2023-02-12T11:53:34.189Z,98.00
2023-02-12T11:54:43.887Z,97.50
2023-02-12T11:55:53.266Z,97.10
2023-02-12T11:56:58.399Z,96.80
2023-02-12T11:58:05.144Z,96.80
2023-02-12T11:59:13.167Z,96.70
2023-02-12T12:00:32.079Z,97.00
2023-02-12T12:01:36.412Z,97.20
2023-02-12T12:02:40.329Z,96.80
2023-02-12T12:03:45.421Z,96.60
2023-02-12T12:04:49.982Z,96.60
2023-02-12T12:05:54.352Z,96.30
2023-02-12T12:07:08.694Z,96.20
2023-02-12T12:08:18.039Z,96.40
2023-02-12T12:09:21.081Z,96.40
2023-02-12T12:10:44.600Z,96.50
2023-02-12T12:11:49.578Z,96.40
2023-02-12T12:12:55.434Z,96.20
2023-02-12T12:14:05.824Z,96.20
2023-02-12T12:15:59.886Z,96.40
2023-02-12T12:17:24.556Z,96.30
2023-02-12T12:19:05.093Z,96.10
2023-02-12T12:20:15.128Z,96.50
2023-02-12T12:21:42.728Z,96.50
2023-02-12T12:22:56.903Z,95.80
2023-02-12T12:24:24.139Z,95.70
2023-02-12T12:27:39.079Z,95.80
2023-02-12T12:29:23.402Z,96.40
2023-02-12T12:30:40.274Z,96.40
2023-02-12T12:32:28.979Z,96.50
2023-02-12T12:34:17.998Z,96.40
2023-02-12T12:37:45.431Z,96.70
2023-02-12T12:38:47.457Z,97.10
2023-02-12T12:40:11.922Z,97.10
2023-02-12T12:41:32.572Z,97.10
2023-02-12T12:42:34.258Z,96.90
2023-02-12T12:43:50.904Z,96.90
2023-02-12T12:45:17.965Z,97.20
2023-02-12T12:46:22.489Z,97.10
2023-02-12T12:47:30.155Z,96.90
2023-02-12T12:48:35.209Z,96.80
2023-02-12T12:50:12.296Z,97.00
2023-02-12T12:51:28.683Z,97.20
2023-02-12T12:52:52.108Z,97.20
2023-02-12T12:54:05.898Z,97.30
2023-02-12T12:55:26.099Z,97.30
2023-02-12T12:56:46.521Z,97.30
2023-02-12T12:58:11.856Z,97.40
2023-02-12T12:59:32.470Z,97.50
2023-02-12T13:00:40.994Z,97.60
2023-02-12T13:02:02.065Z,97.70
2023-02-12T13:03:12.972Z,97.90
2023-02-12T13:04:23.377Z,97.90
2023-02-12T13:05:25.666Z,98.00
2023-02-12T13:06:36.975Z,98.10
2023-02-12T13:07:38.860Z,98.10
2023-02-12T13:09:01.458Z,98.40
2023-02-12T13:10:11.306Z,98.20
2023-02-12T13:11:21.657Z,98.20
2023-02-12T13:12:26.309Z,98.10
2023-02-12T13:13:33.809Z,98.20
2023-02-12T13:14:43.743Z,98.40
2023-02-12T13:15:59.214Z,98.40
2023-02-12T13:17:10.198Z,98.40
2023-02-12T13:18:14.766Z,98.40
2023-02-12T13:19:27.974Z,98.50
2023-02-12T13:20:32.729Z,98.60
2023-02-12T13:21:39.300Z,98.70
2023-02-12T13:22:47.884Z,98.70
2023-02-12T13:23:55.660Z,98.70
2023-02-12T13:25:03.065Z,98.70
2023-02-12T13:26:14.778Z,98.80
2023-02-12T13:27:24.676Z,98.70
2023-02-12T13:28:42.187Z,98.70
2023-02-12T13:29:50.481Z,98.60
2023-02-12T13:30:52.982Z,98.70
2023-02-12T13:31:59.346Z,98.70
2023-02-12T13:33:10.728Z,98.60
2023-02-12T13:34:14.334Z,98.70
2023-02-12T13:35:18.593Z,98.90
2023-02-12T13:36:20.375Z,98.90
2023-02-12T13:37:32.942Z,98.80
2023-02-12T13:38:38.321Z,98.90
2023-02-12T13:39:41.591Z,98.80
2023-02-12T13:40:43.286Z,98.80
2023-02-12T13:41:48.751Z,98.80
2023-02-12T13:42:50.450Z,98.90
2023-02-12T13:44:07.439Z,99.00
2023-02-12T13:45:27.044Z,98.80
2023-02-12T13:46:47.493Z,98.80
2023-02-12T13:47:58.506Z,99.00
2023-02-12T13:49:12.426Z,99.00
2023-02-12T13:50:23.479Z,99.20
2023-02-12T13:51:30.769Z,99.40
2023-02-12T13:52:45.069Z,99.50
2023-02-12T13:53:54.304Z,99.60
2023-02-12T13:55:12.149Z,99.60
2023-02-12T13:56:28.011Z,99.70
2023-02-12T13:57:29.688Z,99.80
2023-02-12T13:58:31.659Z,99.90
2023-02-12T13:59:34.093Z,99.90
2023-02-12T14:00:51.107Z,99.90
2023-02-12T14:01:53.404Z,99.90
2023-02-12T14:02:55.211Z,99.90
2023-02-12T14:04:13.075Z,99.90
2023-02-12T14:05:16.452Z,99.90
2023-02-12T14:06:20.507Z,99.90
2023-02-12T14:07:22.358Z,99.90
2023-02-12T14:08:35.180Z,99.90
2023-02-12T14:09:44.949Z,99.90
2023-02-12T14:11:02.711Z,99.90
2023-02-12T14:12:06.638Z,99.90
2023-02-12T14:13:14.196Z,99.90
2023-02-12T14:14:25.386Z,99.90
2023-02-12T14:15:34.957Z,99.90
2023-02-12T14:16:39.689Z,99.90
2023-02-12T14:17:42.510Z,99.90
2023-02-12T14:18:44.311Z,99.90
2023-02-12T14:19:52.023Z,99.90
2023-02-12T14:21:12.182Z,99.90
2023-02-12T14:22:34.093Z,99.90
2023-02-12T14:23:36.432Z,99.90
2023-02-12T14:24:38.110Z,99.90
2023-02-12T14:25:42.093Z,99.90
2023-02-12T14:26:43.909Z,99.90